Killian, South Carolina
Current Conditions -  °F | °C
As of 4:53 PM on Friday 28 Nov 2014 (Local Time) from KCUB Reporting Station
Clear Clear  
Wind Chill: 45°   Ceiling: Unl
Heat Index: 47°   Visibility: 10mi
Dew Point: 20°   Wind: 5mph
Humidity: 34%   Direction: 200°SSW
Pressure: 30.32"   Gusts: NA
Location:  34.1179°N, 81.0612°W
Report Text: KCUB 282153Z AUTO 20004KT 10SM CLR 08/M07 A3032 RMK AO2 SLP268 T00831067
Loading
Personal Weather Stations






























Interactive Weather Map New forecast layout! Learn more

10-Day Weather Forecast

Advertisements
Track Severe Weather on mobile